createdAt,value
2022-10-01T00:02:09.393Z,3.13
2022-10-01T00:04:39.513Z,3.25
2022-10-01T00:07:10.263Z,2.75
2022-10-01T00:09:37.241Z,4.05
2022-10-01T00:12:03.986Z,3.20
2022-10-01T00:14:33.084Z,5.72
2022-10-01T00:17:05.162Z,3.97
2022-10-01T00:19:31.868Z,2.75
2022-10-01T00:22:00.399Z,3.83
2022-10-01T00:24:29.579Z,2.78
2022-10-01T00:26:56.457Z,3.15
2022-10-01T00:29:23.081Z,3.60
2022-10-01T00:31:55.397Z,3.72
2022-10-01T00:34:22.078Z,2.83
2022-10-01T00:36:55.771Z,2.58
2022-10-01T00:39:29.531Z,3.13
2022-10-01T00:41:56.116Z,3.38
2022-10-01T00:44:36.284Z,3.58
2022-10-01T00:47:25.079Z,4.22
2022-10-01T00:49:59.320Z,5.07
2022-10-01T00:52:31.983Z,3.40
2022-10-01T00:55:07.570Z,2.55
2022-10-01T00:57:34.870Z,3.75
2022-10-01T01:00:04.516Z,2.80
2022-10-01T01:02:33.628Z,2.45
2022-10-01T01:05:01.311Z,3.47
2022-10-01T01:07:35.600Z,4.43
2022-10-01T01:10:09.807Z,3.17
2022-10-01T01:12:56.785Z,3.17
2022-10-01T01:16:02.367Z,3.60
2022-10-01T01:18:36.448Z,3.60
2022-10-01T01:21:21.001Z,2.47
2022-10-01T01:23:53.533Z,4.30
2022-10-01T01:26:51.412Z,3.30
2022-10-01T01:29:39.312Z,2.65
2022-10-01T01:32:14.951Z,2.38
2022-10-01T01:34:52.488Z,3.60
2022-10-01T01:37:23.969Z,2.70
2022-10-01T01:39:53.342Z,3.20
2022-10-01T01:42:27.017Z,3.22
2022-10-01T01:44:59.786Z,2.42
2022-10-01T01:47:32.781Z,2.70
2022-10-01T01:50:03.714Z,1.90
2022-10-01T01:52:32.814Z,2.75
2022-10-01T01:54:59.695Z,3.50
2022-10-01T01:57:26.642Z,3.22
2022-10-01T01:59:55.469Z,3.03
2022-10-01T02:02:26.714Z,4.65
2022-10-01T02:05:02.274Z,3.25
2022-10-01T02:07:56.042Z,3.88
2022-10-01T02:10:41.195Z,2.22
2022-10-01T02:13:23.977Z,2.92
2022-10-01T02:16:09.720Z,2.97
2022-10-01T02:19:11.885Z,3.78
2022-10-01T02:21:40.854Z,2.17
2022-10-01T02:24:19.158Z,2.08
2022-10-01T02:26:50.634Z,1.88
2022-10-01T02:29:20.752Z,2.80
2022-10-01T02:31:55.252Z,1.80
2022-10-01T02:34:24.860Z,1.80
2022-10-01T02:36:53.325Z,1.60
2022-10-01T02:39:29.523Z,2.13
2022-10-01T02:41:59.173Z,1.33
2022-10-01T02:44:32.305Z,2.35
2022-10-01T02:47:16.757Z,1.58
2022-10-01T02:49:43.906Z,2.42
2022-10-01T02:52:40.555Z,1.58
2022-10-01T02:55:33.569Z,0.95
2022-10-01T02:58:00.246Z,3.20
2022-10-01T03:00:29.149Z,1.20
2022-10-01T03:02:55.838Z,1.27
2022-10-01T03:05:27.409Z,1.00
2022-10-01T03:08:01.618Z,1.00
2022-10-01T03:10:30.620Z,1.55
2022-10-01T03:12:58.058Z,1.00
2022-10-01T03:15:36.200Z,1.98
2022-10-01T03:18:04.102Z,0.90
2022-10-01T03:20:30.777Z,0.63
2022-10-01T03:22:59.576Z,0.43
2022-10-01T03:25:30.674Z,0.63
2022-10-01T03:28:00.286Z,0.45
2022-10-01T03:30:26.971Z,0.55
2022-10-01T03:32:57.100Z,0.68
2022-10-01T03:35:24.833Z,0.50
2022-10-01T03:37:51.435Z,0.47
2022-10-01T03:40:18.150Z,0.40
2022-10-01T03:42:44.783Z,1.17
2022-10-01T03:45:14.214Z,0.35
2022-10-01T03:47:43.777Z,0.32
2022-10-01T03:50:10.719Z,0.35
2022-10-01T03:52:39.461Z,0.40
2022-10-01T03:55:06.561Z,0.43
2022-10-01T03:57:33.229Z,0.20
2022-10-01T04:00:07.597Z,1.23
2022-10-01T04:02:40.416Z,0.40
2022-10-01T04:05:08.103Z,0.13
2022-10-01T04:07:34.717Z,0.30
2022-10-01T04:10:01.465Z,0.40
2022-10-01T04:12:28.232Z,0.20
2022-10-01T04:14:54.813Z,0.32
2022-10-01T04:17:22.093Z,1.27
2022-10-01T04:19:51.122Z,0.13
2022-10-01T04:22:20.221Z,0.10
2022-10-01T04:24:48.665Z,0.15
2022-10-01T04:27:17.736Z,0.52
2022-10-01T04:29:59.112Z,0.15
2022-10-01T04:32:25.723Z,0.10
2022-10-01T04:34:52.697Z,0.20
2022-10-01T04:37:24.385Z,0.40
2022-10-01T04:39:51.077Z,0.20
2022-10-01T04:42:23.366Z,0.35
2022-10-01T04:44:51.074Z,0.40
2022-10-01T04:47:17.740Z,0.40
2022-10-01T04:49:46.384Z,0.30
2022-10-01T04:52:13.536Z,0.17
2022-10-01T04:54:42.282Z,0.20
2022-10-01T04:57:08.866Z,0.20
2022-10-01T04:59:37.858Z,0.10
2022-10-01T05:02:04.521Z,0.10
2022-10-01T05:04:31.170Z,0.32
2022-10-01T05:06:57.784Z,0.20
2022-10-01T05:09:24.702Z,0.10
2022-10-01T05:11:51.936Z,0.10
2022-10-01T05:14:21.076Z,0.43
2022-10-01T05:16:49.752Z,1.75
2022-10-01T05:19:19.353Z,3.65
2022-10-01T05:21:48.431Z,0.20
2022-10-01T05:24:17.560Z,0.00
2022-10-01T05:26:52.613Z,0.28
2022-10-01T05:29:22.607Z,0.10
2022-10-01T05:31:49.297Z,0.40
2022-10-01T05:34:18.733Z,0.30
2022-10-01T05:36:45.490Z,2.33
2022-10-01T05:39:14.362Z,0.90
2022-10-01T05:41:41.007Z,0.50
2022-10-01T05:44:07.878Z,0.73
2022-10-01T05:46:34.528Z,0.90
2022-10-01T05:49:01.348Z,0.68
2022-10-01T05:51:31.045Z,0.50
2022-10-01T05:56:32.305Z,0.20
2022-10-01T05:58:59.417Z,0.30
2022-10-01T06:01:26.076Z,0.38
2022-10-01T06:03:53.143Z,1.33
2022-10-01T06:06:28.998Z,0.30
2022-10-01T06:08:55.694Z,0.17
2022-10-01T06:11:24.110Z,0.77
2022-10-01T06:13:51.213Z,0.43
2022-10-01T06:16:17.941Z,0.10
2022-10-01T06:18:44.572Z,0.65
2022-10-01T06:21:11.177Z,0.55
2022-10-01T06:23:37.794Z,0.10
2022-10-01T06:26:06.980Z,0.68
2022-10-01T06:28:33.626Z,0.10
2022-10-01T06:31:03.568Z,0.75
2022-10-01T06:33:30.480Z,2.25
2022-10-01T06:35:57.137Z,0.20
2022-10-01T06:38:24.866Z,1.50
2022-10-01T06:40:53.489Z,0.20
2022-10-01T06:43:20.544Z,0.22
2022-10-01T06:45:47.321Z,0.32
2022-10-01T06:48:15.888Z,0.20
2022-10-01T06:50:44.243Z,0.20
2022-10-01T06:53:12.017Z,0.73
2022-10-01T06:55:39.003Z,0.45
2022-10-01T06:58:12.888Z,0.70
2022-10-01T07:00:39.724Z,1.42
2022-10-01T07:03:10.962Z,0.20
2022-10-01T07:05:41.028Z,0.20
2022-10-01T07:08:08.228Z,0.10
2022-10-01T07:10:36.078Z,0.45
2022-10-01T07:13:13.686Z,0.32
2022-10-01T07:15:43.795Z,0.63
2022-10-01T07:18:11.206Z,0.17
2022-10-01T07:20:42.064Z,0.20
2022-10-01T07:23:11.973Z,0.30
2022-10-01T07:25:39.746Z,0.52
2022-10-01T07:28:08.066Z,0.35
2022-10-01T07:30:34.944Z,1.48
2022-10-01T07:33:01.587Z,0.15
2022-10-01T07:35:29.519Z,0.77
2022-10-01T07:37:56.165Z,0.38
2022-10-01T07:40:25.800Z,0.35
2022-10-01T07:42:56.407Z,0.50
2022-10-01T07:45:23.980Z,0.80
2022-10-01T07:48:02.456Z,0.63
2022-10-01T07:50:30.454Z,0.75
2022-10-01T07:52:58.384Z,1.08
2022-10-01T07:55:28.829Z,0.50
2022-10-01T07:58:03.624Z,1.45
2022-10-01T08:00:33.728Z,1.05
2022-10-01T08:03:04.844Z,0.50
2022-10-01T08:05:34.306Z,1.17
2022-10-01T08:08:03.503Z,0.60
2022-10-01T08:10:30.686Z,0.52
2022-10-01T08:13:02.083Z,1.17
2022-10-01T08:15:30.924Z,1.33
2022-10-01T08:18:02.109Z,0.73
2022-10-01T08:20:28.869Z,2.22
2022-10-01T08:23:06.169Z,1.17
2022-10-01T08:25:35.420Z,0.38
2022-10-01T08:28:02.800Z,1.50
2022-10-01T08:30:32.311Z,0.82
2022-10-01T08:33:07.813Z,0.82
2022-10-01T08:35:36.857Z,1.27
2022-10-01T08:38:04.973Z,1.25
2022-10-01T08:40:38.020Z,1.58
2022-10-01T08:43:07.711Z,1.33
2022-10-01T08:45:44.857Z,0.55
2022-10-01T08:48:48.195Z,1.10
2022-10-01T08:51:30.500Z,1.05
2022-10-01T08:54:15.299Z,2.33
2022-10-01T08:56:48.814Z,0.63
2022-10-01T08:59:32.783Z,1.38
2022-10-01T09:01:59.529Z,1.85
2022-10-01T09:04:35.958Z,1.33
2022-10-01T09:07:17.178Z,1.00
2022-10-01T09:09:56.132Z,1.95
2022-10-01T09:12:29.177Z,0.55
2022-10-01T09:15:02.178Z,0.85
2022-10-01T09:18:09.259Z,0.98
2022-10-01T09:20:40.748Z,0.80
2022-10-01T09:23:28.021Z,1.57
2022-10-01T09:25:57.080Z,0.75
2022-10-01T09:28:32.118Z,0.75
2022-10-01T09:31:26.425Z,1.00
2022-10-01T09:34:14.318Z,0.68
2022-10-01T09:36:52.534Z,2.78
2022-10-01T09:39:26.840Z,1.33
2022-10-01T09:41:59.660Z,1.85
2022-10-01T09:44:32.361Z,1.00
2022-10-01T09:46:59.089Z,1.42
2022-10-01T09:49:45.992Z,2.30
2022-10-01T09:52:19.447Z,2.97
2022-10-01T09:55:03.427Z,4.57
2022-10-01T09:57:40.385Z,1.88
2022-10-01T10:00:11.117Z,2.60
2022-10-01T10:02:49.222Z,2.47
2022-10-01T10:05:32.226Z,2.95
2022-10-01T10:08:12.585Z,3.47
2022-10-01T10:10:48.204Z,5.07
2022-10-01T10:13:27.093Z,3.03
2022-10-01T10:15:58.054Z,4.45
2022-10-01T10:18:34.501Z,4.80
2022-10-01T10:21:21.429Z,6.97
2022-10-01T10:23:59.050Z,4.75
2022-10-01T10:26:35.846Z,6.63
2022-10-01T10:29:05.177Z,6.10
2022-10-01T10:31:43.504Z,5.97
2022-10-01T10:34:21.369Z,8.27
2022-10-01T10:36:48.784Z,5.45
2022-10-01T10:39:24.685Z,5.15
2022-10-01T10:41:52.926Z,5.10
2022-10-01T10:44:22.794Z,8.25
2022-10-01T10:46:51.664Z,6.40
2022-10-01T10:49:31.165Z,4.78
2022-10-01T10:52:01.519Z,6.10
2022-10-01T10:54:32.565Z,3.38
2022-10-01T10:57:18.312Z,3.47
2022-10-01T10:59:56.069Z,4.10
2022-10-01T11:02:25.324Z,4.65
2022-10-01T11:04:54.837Z,6.70
2022-10-01T11:07:26.738Z,4.85
2022-10-01T11:10:06.780Z,5.93
2022-10-01T11:13:08.661Z,10.73
2022-10-01T11:15:57.457Z,3.97
2022-10-01T11:18:37.758Z,5.10
2022-10-01T11:21:25.475Z,6.50
2022-10-01T11:24:14.886Z,5.82
2022-10-01T11:26:53.499Z,4.93
2022-10-01T11:29:58.713Z,2.17
2022-10-01T11:32:36.681Z,3.08
2022-10-01T11:35:21.924Z,4.75
2022-10-01T11:38:21.071Z,4.22
2022-10-01T11:41:00.177Z,9.55
2022-10-01T11:43:51.085Z,5.63
2022-10-01T11:46:33.658Z,5.63
2022-10-01T11:49:31.897Z,4.80
2022-10-01T11:52:17.836Z,5.88
2022-10-01T11:55:28.947Z,7.78
2022-10-01T11:58:44.943Z,7.72
2022-10-01T12:01:19.511Z,11.25
2022-10-01T12:03:52.411Z,6.60
2022-10-01T12:06:34.422Z,3.28
2022-10-01T12:09:17.021Z,8.98
2022-10-01T12:11:50.581Z,4.00
2022-10-01T12:14:27.609Z,8.57
2022-10-01T12:16:59.886Z,7.28
2022-10-01T12:22:33.566Z,7.88
2022-10-01T12:25:00.323Z,6.13
2022-10-01T12:27:53.948Z,3.53
2022-10-01T12:30:27.709Z,6.85
2022-10-01T12:33:06.142Z,6.22
2022-10-01T12:35:59.313Z,3.78
2022-10-01T12:38:25.918Z,9.98
2022-10-01T12:41:34.186Z,4.57
2022-10-01T12:44:09.527Z,4.93
2022-10-01T12:47:01.072Z,7.97
2022-10-01T12:49:41.704Z,5.40
2022-10-01T12:52:21.936Z,5.10
2022-10-01T12:55:10.157Z,7.05
2022-10-01T12:57:57.068Z,4.53
2022-10-01T13:00:26.204Z,3.15
2022-10-01T13:03:20.245Z,4.85
2022-10-01T13:06:29.715Z,8.10
2022-10-01T13:09:17.671Z,6.18
2022-10-01T13:12:17.501Z,4.63
2022-10-01T13:14:45.198Z,5.30
2022-10-01T13:17:22.469Z,5.95
2022-10-01T13:20:01.216Z,4.13
2022-10-01T13:23:04.134Z,5.53
2022-10-01T13:28:32.094Z,7.38
2022-10-01T13:31:01.457Z,3.63
2022-10-01T13:33:31.998Z,6.20
2022-10-01T13:36:10.557Z,4.75
2022-10-01T13:38:47.844Z,6.88
2022-10-01T13:41:23.124Z,5.75
2022-10-01T13:44:36.621Z,6.90
2022-10-01T13:47:07.007Z,5.63
2022-10-01T13:49:35.763Z,5.78
2022-10-01T13:52:04.481Z,2.72
2022-10-01T13:54:46.473Z,5.28
2022-10-01T13:57:34.890Z,4.18
2022-10-01T14:00:14.977Z,4.68
2022-10-01T14:02:46.112Z,3.90
2022-10-01T14:05:22.991Z,2.13
2022-10-01T14:07:56.548Z,3.88
2022-10-01T14:10:31.873Z,3.75
2022-10-01T14:13:21.463Z,2.85
2022-10-01T14:16:00.094Z,3.25
2022-10-01T14:18:35.825Z,2.63
2022-10-01T14:21:07.909Z,4.10
2022-10-01T14:26:17.504Z,5.30
2022-10-01T14:29:07.896Z,4.55
2022-10-01T14:31:52.976Z,5.45
2022-10-01T14:34:31.610Z,4.47
2022-10-01T14:37:01.099Z,6.10
2022-10-01T14:39:29.355Z,4.32
2022-10-01T14:41:57.708Z,4.97
2022-10-01T14:44:41.625Z,3.50
2022-10-01T14:47:19.342Z,4.07
2022-10-01T14:49:47.050Z,3.30
2022-10-01T14:52:23.776Z,7.07
2022-10-01T14:55:00.693Z,3.97
2022-10-01T14:57:58.585Z,4.50
2022-10-01T15:00:30.521Z,4.57
2022-10-01T15:03:05.986Z,2.70
2022-10-01T15:05:34.871Z,4.68
2022-10-01T15:08:23.069Z,5.22
2022-10-01T15:10:58.594Z,6.13
2022-10-01T15:13:37.917Z,4.82
2022-10-01T15:16:11.475Z,4.32
2022-10-01T15:18:58.081Z,4.10
2022-10-01T15:21:40.330Z,4.43
2022-10-01T15:26:41.372Z,2.42
2022-10-01T15:29:17.681Z,2.95
2022-10-01T15:31:47.229Z,5.30
2022-10-01T15:34:17.658Z,3.75
2022-10-01T15:36:45.757Z,4.70
2022-10-01T15:39:29.944Z,5.15
2022-10-01T15:41:58.319Z,3.03
2022-10-01T15:44:42.533Z,4.20
2022-10-01T15:47:47.586Z,7.38
2022-10-01T15:50:23.553Z,2.95
2022-10-01T15:52:53.270Z,5.15
2022-10-01T15:55:22.315Z,5.13
2022-10-01T15:57:56.737Z,3.53
2022-10-01T16:00:26.626Z,2.88
2022-10-01T16:02:57.848Z,4.68
2022-10-01T16:05:31.489Z,5.40
2022-10-01T16:08:00.540Z,3.20
2022-10-01T16:10:37.455Z,3.38
2022-10-01T16:13:28.958Z,3.35
2022-10-01T16:16:16.807Z,5.65
2022-10-01T16:18:43.458Z,3.85
2022-10-01T16:21:11.277Z,3.20
2022-10-01T16:23:42.193Z,3.45
2022-10-01T16:26:27.278Z,4.20
2022-10-01T16:29:14.510Z,3.53
2022-10-01T16:31:45.551Z,6.47
2022-10-01T16:34:14.225Z,3.20
2022-10-01T16:36:41.036Z,5.35
2022-10-01T16:39:10.676Z,3.35
2022-10-01T16:41:37.341Z,4.93
2022-10-01T16:44:07.957Z,3.08
2022-10-01T16:46:34.861Z,5.72
2022-10-01T16:49:01.782Z,3.15
2022-10-01T16:51:28.612Z,4.10
2022-10-01T16:53:59.006Z,4.63
2022-10-01T16:56:27.318Z,2.55
2022-10-01T16:58:54.526Z,3.65
2022-10-01T17:01:21.290Z,6.47
2022-10-01T17:03:47.965Z,5.53
2022-10-01T17:06:14.566Z,4.70
2022-10-01T17:08:41.767Z,4.80
2022-10-01T17:11:12.710Z,3.90
2022-10-01T17:13:39.613Z,2.60
2022-10-01T17:16:06.544Z,6.68
2022-10-01T17:18:33.229Z,4.45
2022-10-01T17:21:03.300Z,4.75
2022-10-01T17:23:30.000Z,4.30
2022-10-01T17:25:56.607Z,5.35
2022-10-01T17:28:25.416Z,6.15
2022-10-01T17:30:52.128Z,2.55
2022-10-01T17:33:22.040Z,4.43
2022-10-01T17:35:51.919Z,2.88
2022-10-01T17:38:19.376Z,4.38
2022-10-01T17:40:46.605Z,3.22
2022-10-01T17:43:17.337Z,5.05
2022-10-01T17:45:52.256Z,10.20
2022-10-01T17:48:22.130Z,9.20
2022-10-01T17:50:57.457Z,5.82
2022-10-01T17:53:24.341Z,5.57
2022-10-01T17:55:50.921Z,4.55
2022-10-01T17:58:19.851Z,7.25
2022-10-01T18:00:48.826Z,4.60
2022-10-01T18:03:17.928Z,9.32
2022-10-01T18:05:45.365Z,5.18
2022-10-01T18:08:12.054Z,10.75
2022-10-01T18:10:44.261Z,6.88
2022-10-01T18:13:13.838Z,3.85
2022-10-01T18:15:43.025Z,4.97
2022-10-01T18:21:13.536Z,5.32
2022-10-01T18:23:43.671Z,5.15
2022-10-01T18:26:11.084Z,7.97
2022-10-01T18:28:41.858Z,4.50
2022-10-01T18:31:11.372Z,10.23
2022-10-01T18:36:39.662Z,7.20
2022-10-01T18:39:17.281Z,7.32
2022-10-01T18:41:44.745Z,5.45
2022-10-01T18:44:20.505Z,6.95
2022-10-01T18:46:51.861Z,7.20
2022-10-01T18:49:45.858Z,6.53
2022-10-01T18:52:33.894Z,5.70
2022-10-01T18:55:25.147Z,8.38
2022-10-01T18:58:21.436Z,4.63
2022-10-01T19:01:04.337Z,5.47
2022-10-01T19:03:55.115Z,4.88
2022-10-01T19:06:27.527Z,7.07
2022-10-01T19:09:16.551Z,5.63
2022-10-01T19:11:44.429Z,6.00
2022-10-01T19:14:41.197Z,6.35
2022-10-01T19:17:20.094Z,8.05
2022-10-01T19:20:15.026Z,6.57
2022-10-01T19:23:00.800Z,8.75
2022-10-01T19:26:02.088Z,7.32
2022-10-01T19:28:46.870Z,6.55
2022-10-01T19:31:31.426Z,7.18
2022-10-01T19:34:09.636Z,8.50
2022-10-01T19:36:41.249Z,7.13
2022-10-01T19:39:20.080Z,9.25
2022-10-01T19:42:05.624Z,7.03
2022-10-01T19:44:39.723Z,7.38
2022-10-01T19:47:32.969Z,5.75
2022-10-01T19:50:06.983Z,7.25
2022-10-01T19:52:38.155Z,6.32
2022-10-01T19:55:13.599Z,7.53
2022-10-01T19:57:44.089Z,16.10
2022-10-01T20:00:21.458Z,13.85
2022-10-01T20:03:00.541Z,12.40
2022-10-01T20:05:31.921Z,9.32
2022-10-01T20:08:00.574Z,9.23
2022-10-01T20:10:56.874Z,7.43
2022-10-01T20:13:46.111Z,5.72
2022-10-01T20:16:27.943Z,6.70
2022-10-01T20:19:19.687Z,6.80
2022-10-01T20:21:48.825Z,6.53
2022-10-01T20:24:22.631Z,7.28
2022-10-01T20:27:05.672Z,8.02
2022-10-01T20:29:52.711Z,6.95
2022-10-01T20:32:27.965Z,9.18
2022-10-01T20:35:20.625Z,6.43
2022-10-01T20:38:06.834Z,7.88
2022-10-01T20:40:51.084Z,7.85
2022-10-01T20:43:34.822Z,5.88
2022-10-01T20:46:19.584Z,6.85
2022-10-01T20:49:04.377Z,7.10
2022-10-01T20:51:45.941Z,5.13
2022-10-01T20:54:22.982Z,9.95
2022-10-01T20:57:10.875Z,6.55
2022-10-01T20:59:42.358Z,4.40
2022-10-01T21:02:24.266Z,4.00
2022-10-01T21:05:01.839Z,6.18
2022-10-01T21:07:41.198Z,5.78
2022-10-01T21:10:22.048Z,5.32
2022-10-01T21:12:59.604Z,5.45
2022-10-01T21:15:38.937Z,5.32
2022-10-01T21:18:26.362Z,7.53
2022-10-01T21:21:21.878Z,9.75
2022-10-01T21:23:48.427Z,11.95
2022-10-01T21:26:39.370Z,6.38
2022-10-01T21:29:50.225Z,8.35
2022-10-01T21:32:48.598Z,8.77
2022-10-01T21:35:27.401Z,7.68
2022-10-01T21:38:10.553Z,8.65
2022-10-01T21:40:49.578Z,6.30
2022-10-01T21:43:45.651Z,6.22
2022-10-01T21:46:39.696Z,7.97
2022-10-01T21:49:36.977Z,4.70
2022-10-01T21:52:27.215Z,9.02
2022-10-01T21:55:03.045Z,7.80
2022-10-01T21:57:38.766Z,7.78
2022-10-01T22:00:24.282Z,7.82
2022-10-01T22:03:22.224Z,5.90
2022-10-01T22:06:19.916Z,6.78
2022-10-01T22:09:07.549Z,9.30
2022-10-01T22:11:39.053Z,6.90
2022-10-01T22:14:16.414Z,7.27
2022-10-01T22:16:55.570Z,6.88
2022-10-01T22:19:35.621Z,8.45
2022-10-01T22:22:08.992Z,8.02
2022-10-01T22:24:49.351Z,8.45
2022-10-01T22:27:37.273Z,8.48
2022-10-01T22:30:11.652Z,8.90
2022-10-01T22:33:42.320Z,7.85
2022-10-01T22:36:11.525Z,8.10
2022-10-01T22:38:56.765Z,8.80
2022-10-01T22:41:27.287Z,11.63
2022-10-01T22:43:57.166Z,7.32
2022-10-01T22:46:57.466Z,10.65
2022-10-01T22:49:44.774Z,6.75
2022-10-01T22:52:42.454Z,9.75
2022-10-01T22:55:28.102Z,12.18
2022-10-01T22:58:27.092Z,6.97
2022-10-01T23:01:18.798Z,10.13
2022-10-01T23:03:45.425Z,12.57
2022-10-01T23:06:52.848Z,8.13
2022-10-01T23:09:44.631Z,11.63
2022-10-01T23:12:19.558Z,8.55
2022-10-01T23:15:13.405Z,11.07
2022-10-01T23:18:01.755Z,16.83
2022-10-01T23:20:53.237Z,6.85
2022-10-01T23:23:33.355Z,9.45
2022-10-01T23:26:16.479Z,13.73
2022-10-01T23:28:50.736Z,10.57
2022-10-01T23:31:36.348Z,10.05
2022-10-01T23:34:46.053Z,9.98
2022-10-01T23:37:18.703Z,7.53
2022-10-01T23:39:58.683Z,8.63
2022-10-01T23:42:49.334Z,9.68
2022-10-01T23:45:30.735Z,10.45
2022-10-01T23:48:08.442Z,9.98
2022-10-01T23:50:54.203Z,11.93
2022-10-01T23:53:34.061Z,15.85
2022-10-01T23:56:27.234Z,12.65
2022-10-01T23:59:21.281Z,13.52
